Time;durP1;ratioP1;P1;durP2;ratioP2;P2;SDS_P1;SDS_P2;PMS_P1;PMS_P2;Temp;Humidity;BMP_temperature;BMP_pressure;BME280_temperature;BME280_humidity;BME280_pressure;Samples;Min_cycle;Max_cycle;Signal;HPM_P1;HPM_P2
2021/10/19 00:01:57;;;;;;;27.60;14.93;;;;;;;13.62;100.00;101877.31;5185590;28;20109;-74
2021/10/19 00:04:27;;;;;;;27.08;14.93;;;;;;;13.58;100.00;101868.69;5181916;28;20537;-73
2021/10/19 00:06:58;;;;;;;23.58;15.05;;;;;;;13.55;100.00;101863.59;5195458;28;20034;-74
2021/10/19 00:09:28;;;;;;;24.92;14.45;;;;;;;13.53;100.00;101859.41;5176095;28;20041;-74
2021/10/19 00:11:59;;;;;;;29.25;15.80;;;;;;;13.52;100.00;101855.88;5189911;28;20021;-75
2021/10/19 00:14:29;;;;;;;28.05;15.57;;;;;;;13.48;100.00;101851.78;5190058;28;20025;-74
2021/10/19 00:17:00;;;;;;;28.48;15.60;;;;;;;13.51;100.00;101850.63;5195211;28;20116;-74
2021/10/19 00:19:30;;;;;;;28.20;15.18;;;;;;;13.48;100.00;101858.03;5194476;28;20022;-74
2021/10/19 00:22:01;;;;;;;34.40;16.48;;;;;;;13.50;100.00;101849.75;5202057;28;20549;-74
2021/10/19 00:24:32;;;;;;;31.00;15.93;;;;;;;13.52;100.00;101855.88;5187969;28;20430;-75
2021/10/19 00:27:04;;;;;;;31.42;15.25;;;;;;;13.54;100.00;101859.22;5190050;28;20437;-74
2021/10/19 00:29:35;;;;;;;31.25;15.85;;;;;;;13.54;100.00;101851.13;5201606;28;20025;-74
2021/10/19 00:32:06;;;;;;;28.38;15.10;;;;;;;13.57;100.00;101850.00;5192466;28;20087;-74
2021/10/19 00:34:36;;;;;;;28.00;15.10;;;;;;;13.55;100.00;101847.44;5195033;28;20033;-75
2021/10/19 00:37:07;;;;;;;29.05;15.18;;;;;;;13.57;100.00;101839.22;5144233;28;20551;-75
2021/10/19 00:39:37;;;;;;;26.50;15.48;;;;;;;13.58;100.00;101844.44;5168629;28;20037;-75
2021/10/19 00:42:08;;;;;;;28.63;16.20;;;;;;;13.60;100.00;101847.78;5200260;28;20541;-74
2021/10/19 00:44:38;;;;;;;28.10;16.25;;;;;;;13.60;100.00;101845.09;5187650;28;20043;-75
2021/10/19 00:47:09;;;;;;;27.00;14.88;;;;;;;13.61;100.00;101848.66;5170171;28;20026;-75
2021/10/19 00:49:40;;;;;;;59.00;15.82;;;;;;;13.63;100.00;101843.94;5180865;28;20765;-74
2021/10/19 00:52:11;;;;;;;28.50;15.85;;;;;;;13.62;100.00;101840.41;5194487;28;20112;-73
2021/10/19 00:54:43;;;;;;;25.23;13.82;;;;;;;13.64;100.00;101827.59;5190645;28;20561;-74
2021/10/19 00:57:14;;;;;;;24.42;13.88;;;;;;;13.68;100.00;101830.81;5201170;28;20045;-74
2021/10/19 00:59:46;;;;;;;24.92;13.93;;;;;;;13.70;100.00;101835.06;5190183;28;20021;-74
2021/10/19 01:02:17;;;;;;;27.25;14.85;;;;;;;13.69;100.00;101837.91;5168354;28;20037;-75
2021/10/19 01:04:48;;;;;;;23.83;14.73;;;;;;;13.70;100.00;101832.38;5189060;28;20392;-75
2021/10/19 01:07:19;;;;;;;22.05;13.73;;;;;;;13.72;100.00;101824.94;5182868;28;20081;-73
2021/10/19 01:09:50;;;;;;;21.50;13.32;;;;;;;13.74;100.00;101830.16;5179470;28;20038;-74
2021/10/19 01:12:21;;;;;;;22.88;13.27;;;;;;;13.74;100.00;101831.00;5194221;28;20045;-75
2021/10/19 01:14:52;;;;;;;21.92;12.73;;;;;;;13.75;100.00;101821.06;5180777;28;20029;-75
2021/10/19 01:17:22;;;;;;;26.67;13.93;;;;;;;13.77;100.00;101826.31;5190077;28;20034;-74
2021/10/19 01:19:54;;;;;;;23.73;14.07;;;;;;;13.76;100.00;101817.38;5197490;28;20045;-74
2021/10/19 01:22:24;;;;;;;22.25;12.65;;;;;;;13.76;100.00;101819.22;5190554;28;20103;-74
2021/10/19 01:24:55;;;;;;;30.83;14.80;;;;;;;13.75;100.00;101810.28;5200760;28;20026;-75
2021/10/19 01:27:25;;;;;;;22.10;12.65;;;;;;;13.73;100.00;101813.13;5189814;28;20030;-75
2021/10/19 01:29:55;;;;;;;20.33;13.40;;;;;;;13.76;100.00;101797.66;5199294;28;20025;-75
2021/10/19 01:32:26;;;;;;;23.08;13.05;;;;;;;13.77;100.00;101791.25;5188256;28;20483;-74
2021/10/19 01:34:56;;;;;;;20.80;12.60;;;;;;;13.74;100.00;101795.94;5194424;28;20037;-75
2021/10/19 01:37:27;;;;;;;20.00;12.15;;;;;;;13.73;100.00;101791.56;5194729;28;20025;-75
2021/10/19 01:39:58;;;;;;;20.70;12.25;;;;;;;13.72;100.00;101789.88;5200974;28;20022;-75
2021/10/19 01:42:33;;;;;;;22.85;12.57;;;;;;;13.71;100.00;101787.34;5181329;28;20036;-74
2021/10/19 01:45:11;;;;;;;;;;;;;;;13.68;100.00;101784.97;5170373;28;20022;-75
2021/10/19 01:47:43;;;;;;;21.58;12.25;;;;;;;13.70;100.00;101780.25;5167902;28;19908;-75
2021/10/19 01:50:15;;;;;;;24.08;12.30;;;;;;;13.69;100.00;101773.19;5189934;28;20117;-75
2021/10/19 01:52:46;;;;;;;24.30;11.63;;;;;;;13.68;100.00;101766.09;5193599;28;20030;-75
2021/10/19 01:55:17;;;;;;;23.83;12.00;;;;;;;13.69;100.00;101763.22;5180081;28;20034;-75
2021/10/19 01:57:47;;;;;;;22.70;11.70;;;;;;;13.69;100.00;101765.09;5170413;28;20029;-75
2021/10/19 02:00:18;;;;;;;22.88;12.25;;;;;;;13.67;100.00;101761.72;5195679;28;20033;-76
2021/10/19 02:02:49;;;;;;;19.40;11.23;;;;;;;13.66;100.00;101763.59;5189386;28;20522;-75
2021/10/19 02:05:21;;;;;;;19.35;10.60;;;;;;;13.69;100.00;101755.16;5196877;28;20045;-74
2021/10/19 02:07:52;;;;;;;22.58;10.93;;;;;;;13.67;100.00;101749.09;5182022;28;20117;-75
2021/10/19 02:10:23;;;;;;;16.92;10.40;;;;;;;13.65;100.00;101745.69;5166662;28;20119;-75
2021/10/19 02:12:53;;;;;;;18.63;10.48;;;;;;;13.67;100.00;101746.38;5200373;28;20342;-74
2021/10/19 02:15:27;;;;;;;17.70;10.85;;;;;;;13.66;100.00;101747.41;5180948;28;20117;-74
2021/10/19 02:17:59;;;;;;;16.67;9.82;;;;;;;13.64;100.00;101746.72;5179928;28;20030;-75
2021/10/19 02:20:30;;;;;;;19.15;9.57;;;;;;;13.65;100.00;101745.69;5199251;28;20021;-74
2021/10/19 02:23:01;;;;;;;15.38;9.20;;;;;;;13.67;100.00;101746.38;5198451;28;20025;-74
2021/10/19 02:25:31;;;;;;;15.05;9.02;;;;;;;13.68;100.00;101744.53;5179362;28;20104;-73
2021/10/19 02:28:02;;;;;;;13.85;8.20;;;;;;;13.67;100.00;101743.69;5195874;28;20032;-75
2021/10/19 02:30:32;;;;;;;19.42;9.32;;;;;;;13.68;100.00;101739.13;5189322;28;20523;-74
2021/10/19 02:33:03;;;;;;;14.82;8.95;;;;;;;13.68;100.00;101739.97;5179185;28;20577;-73
2021/10/19 02:35:33;;;;;;;17.30;9.15;;;;;;;13.66;100.00;101735.78;5190427;28;20084;-73
2021/10/19 02:38:04;;;;;;;12.15;8.23;;;;;;;13.69;100.00;101733.56;5187098;28;20018;-73
2021/10/19 02:40:34;;;;;;;15.13;8.60;;;;;;;13.68;100.00;101737.28;5186499;28;20040;-73
2021/10/19 02:43:05;;;;;;;15.27;8.75;;;;;;;13.70;100.00;101735.28;5179172;28;20025;-74
2021/10/19 02:45:36;;;;;;;14.57;8.23;;;;;;;13.71;100.00;101730.72;5191501;28;20033;-74
2021/10/19 02:48:06;;;;;;;14.18;8.20;;;;;;;13.70;100.00;101731.72;5161907;28;20068;-73
2021/10/19 02:50:37;;;;;;;14.63;8.18;;;;;;;13.71;100.00;101731.56;5184496;28;20025;-73
2021/10/19 02:53:07;;;;;;;16.77;8.80;;;;;;;13.71;100.00;101736.97;5199854;28;20033;-74
2021/10/19 02:55:38;;;;;;;14.63;7.55;;;;;;;13.71;100.00;101739.66;5195073;28;20029;-73
2021/10/19 02:58:08;;;;;;;15.10;7.57;;;;;;;13.76;100.00;101735.63;5172369;28;20552;-72
2021/10/19 03:00:40;;;;;;;11.85;7.28;;;;;;;13.74;100.00;101731.22;5197492;28;20142;-72
2021/10/19 03:03:10;;;;;;;14.25;7.80;;;;;;;13.74;100.00;101733.06;5187241;28;20113;-72
2021/10/19 03:05:41;;;;;;;12.57;7.28;;;;;;;13.77;100.00;101731.91;5187344;28;20098;-72
2021/10/19 03:08:11;;;;;;;11.10;7.20;;;;;;;13.78;100.00;101728.22;5188057;28;20037;-72
2021/10/19 03:10:42;;;;;;;16.55;6.97;;;;;;;13.79;100.00;101719.09;5186339;28;20116;-72
2021/10/19 03:13:12;;;;;;;13.07;7.72;;;;;;;13.81;100.00;101725.19;5199181;28;20028;-72
2021/10/19 03:15:43;;;;;;;9.35;6.78;;;;;;;13.86;100.00;101722.84;5189904;28;20091;-72
2021/10/19 03:18:13;;;;;;;15.13;7.00;;;;;;;13.86;100.00;101717.44;5178679;28;20022;-72
2021/10/19 03:20:44;;;;;;;11.88;7.05;;;;;;;13.88;100.00;101715.41;5188480;28;20052;-72
2021/10/19 03:23:16;;;;;;;14.35;6.63;;;;;;;13.86;100.00;101717.44;5194786;28;20116;-72
2021/10/19 03:25:46;;;;;;;13.20;6.65;;;;;;;13.87;100.00;101711.88;5190469;28;20101;-72
2021/10/19 03:28:17;;;;;;;12.48;7.03;;;;;;;13.89;100.00;101719.78;5198914;28;20518;-72
2021/10/19 03:30:47;;;;;;;13.38;6.20;;;;;;;13.88;100.00;101723.50;5198441;28;20036;-72
2021/10/19 03:33:18;;;;;;;10.27;6.57;;;;;;;13.93;100.00;101718.44;5177522;28;20022;-72
2021/10/19 03:35:48;;;;;;;14.45;7.25;;;;;;;13.95;100.00;101714.56;5193271;28;20032;-73
2021/10/19 03:38:19;;;;;;;11.75;6.93;;;;;;;13.94;100.00;101717.44;5190190;28;20022;-73
2021/10/19 03:40:49;;;;;;;9.98;6.47;;;;;;;13.92;100.00;101714.91;5192944;28;20084;-73
2021/10/19 03:43:20;;;;;;;15.73;7.13;;;;;;;13.93;100.00;101721.16;5189473;28;20037;-76
2021/10/19 03:45:50;;;;;;;11.38;6.90;;;;;;;13.94;100.00;101707.47;5178045;28;20046;-73
2021/10/19 03:48:21;;;;;;;14.18;6.68;;;;;;;13.94;100.00;101707.47;5188566;28;20052;-75
2021/10/19 03:50:52;;;;;;;12.18;7.28;;;;;;;13.96;100.00;101715.44;5187828;28;20017;-74
2021/10/19 03:53:23;;;;;;;14.98;7.53;;;;;;;13.94;100.00;101717.44;5198624;28;20028;-76
2021/10/19 03:55:55;;;;;;;12.38;7.13;;;;;;;13.97;100.00;101723.34;5180117;28;20263;-75
2021/10/19 03:58:26;;;;;;;15.15;7.45;;;;;;;13.97;100.00;101722.50;5177739;28;20056;-75
2021/10/19 04:00:56;;;;;;;12.73;8.07;;;;;;;13.98;100.00;101726.88;5195678;28;20029;-74
2021/10/19 04:03:27;;;;;;;15.93;8.43;;;;;;;14.00;100.00;101724.84;5184443;28;20036;-75
2021/10/19 04:05:57;;;;;;;15.10;8.40;;;;;;;14.00;100.00;101733.78;5178431;28;20030;-74
2021/10/19 04:08:28;;;;;;;15.10;8.90;;;;;;;14.02;100.00;101730.94;5177726;28;20101;-74
2021/10/19 04:10:58;;;;;;;13.98;8.20;;;;;;;14.04;100.00;101730.75;5187588;28;20033;-74
2021/10/19 04:13:29;;;;;;;15.48;8.77;;;;;;;14.07;100.00;101733.13;5181703;28;20057;-76
2021/10/19 04:15:59;;;;;;;15.82;9.00;;;;;;;14.08;100.00;101732.13;5188963;28;20028;-74
2021/10/19 04:18:30;;;;;;;15.18;9.05;;;;;;;14.11;100.00;101729.94;5184859;28;20022;-74
2021/10/19 04:21:01;;;;;;;14.73;9.13;;;;;;;14.12;100.00;101734.31;5187383;28;20034;-76
2021/10/19 04:23:31;;;;;;;20.05;9.48;;;;;;;14.12;100.00;101731.63;5196482;28;20108;-73
2021/10/19 04:26:02;;;;;;;18.88;8.90;;;;;;;14.10;100.00;101733.63;5185761;28;20462;-73
2021/10/19 04:28:33;;;;;;;19.80;9.95;;;;;;;14.11;100.00;101723.72;5185024;28;20551;-73
2021/10/19 04:31:03;;;;;;;16.25;9.25;;;;;;;14.12;100.00;101723.53;5197598;28;20551;-73
2021/10/19 04:33:34;;;;;;;31.35;9.75;;;;;;;14.12;100.00;101722.69;5177995;28;20157;-73
2021/10/19 04:36:05;;;;;;;15.55;8.75;;;;;;;14.13;100.00;101727.06;5193221;28;20033;-73
2021/10/19 04:38:36;;;;;;;15.65;9.07;;;;;;;14.17;100.00;101729.25;5188337;28;20037;-73
2021/10/19 04:41:07;;;;;;;18.27;9.63;;;;;;;14.19;100.00;101732.63;5192955;28;20028;-73
2021/10/19 04:43:37;;;;;;;14.07;9.38;;;;;;;14.20;100.00;101728.06;5187108;28;20112;-73
2021/10/19 04:46:08;;;;;;;13.57;9.27;;;;;;;14.21;100.00;101730.63;5194511;28;20101;-73
2021/10/19 04:48:38;;;;;;;16.67;10.13;;;;;;;14.22;100.00;101734.16;5180955;28;20022;-73
2021/10/19 04:51:10;;;;;;;13.57;9.32;;;;;;;14.25;100.00;101718.44;5190799;28;20025;-73
2021/10/19 04:53:40;;;;;;;16.88;10.27;;;;;;;14.30;100.00;101722.50;5188220;28;20518;-74
2021/10/19 04:56:11;;;;;;;16.23;10.13;;;;;;;14.32;100.00;101724.03;5202217;28;20041;-73
2021/10/19 04:58:41;;;;;;;16.52;9.65;;;;;;;14.37;100.00;101713.56;5198795;28;20036;-73
2021/10/19 05:01:12;;;;;;;22.35;10.88;;;;;;;14.39;100.00;101706.13;5190017;28;20030;-74
2021/10/19 05:03:46;;;;;;;17.23;11.73;;;;;;;14.41;100.00;101706.81;5188018;28;20099;-74
2021/10/19 05:06:16;;;;;;;19.63;11.35;;;;;;;14.45;100.00;101704.59;5201762;28;20055;-74
2021/10/19 05:08:47;;;;;;;17.92;11.70;;;;;;;14.46;100.00;101704.47;5182997;28;20484;-74
2021/10/19 05:11:17;;;;;;;19.25;12.23;;;;;;;14.46;100.00;101709.84;5180596;28;20472;-74
2021/10/19 05:13:48;;;;;;;23.52;14.05;;;;;;;14.50;100.00;101713.91;5200461;28;20395;-74
2021/10/19 05:16:18;;;;;;;17.45;12.10;;;;;;;14.50;100.00;101710.38;5201405;28;20060;-73
2021/10/19 05:18:49;;;;;;;21.67;13.38;;;;;;;14.53;100.00;101704.63;5200989;28;20025;-73
2021/10/19 05:21:19;;;;;;;23.52;13.38;;;;;;;14.55;100.00;101704.44;5188354;28;20537;-73
2021/10/19 05:23:50;;;;;;;22.38;14.40;;;;;;;14.54;100.00;101703.63;5192194;28;20056;-73
2021/10/19 05:26:21;;;;;;;23.35;13.48;;;;;;;14.56;100.00;101698.91;5196947;28;20120;-73
2021/10/19 05:28:51;;;;;;;20.83;15.32;;;;;;;14.57;100.00;101699.75;5200722;28;20529;-74
2021/10/19 05:31:21;;;;;;;23.92;13.77;;;;;;;14.58;100.00;101709.53;5170276;28;20029;-73
2021/10/19 05:33:52;;;;;;;25.63;15.38;;;;;;;14.55;100.00;101697.19;5190030;28;20069;-73
2021/10/19 05:36:23;;;;;;;23.58;14.23;;;;;;;14.56;100.00;101698.91;5193545;28;20291;-73
2021/10/19 05:38:53;;;;;;;22.70;13.48;;;;;;;14.58;100.00;101702.25;5180157;28;20241;-73
2021/10/19 05:41:24;;;;;;;29.48;14.50;;;;;;;14.58;100.00;101698.72;5192220;28;20113;-73
2021/10/19 05:43:54;;;;;;;22.58;14.13;;;;;;;14.58;100.00;101710.38;5181097;28;20052;-73
2021/10/19 05:46:25;;;;;;;21.55;15.02;;;;;;;14.60;100.00;101712.88;5192745;28;20092;-73
2021/10/19 05:48:56;;;;;;;22.98;13.77;;;;;;;14.62;100.00;101709.00;5192864;28;20013;-73
2021/10/19 05:51:27;;;;;;;21.17;13.85;;;;;;;14.62;100.00;101713.56;5189896;28;20026;-73
2021/10/19 05:53:58;;;;;;;18.90;13.32;;;;;;;14.61;100.00;101717.25;5182894;28;20087;-73
2021/10/19 05:56:29;;;;;;;19.33;13.02;;;;;;;14.64;100.00;101709.66;5189300;28;20546;-73
2021/10/19 05:58:59;;;;;;;19.45;13.00;;;;;;;14.63;100.00;101716.09;5183710;28;20029;-72
2021/10/19 06:01:30;;;;;;;22.80;13.35;;;;;;;14.65;100.00;101724.84;5186769;28;20028;-73
2021/10/19 06:04:00;;;;;;;19.08;12.27;;;;;;;14.65;100.00;101716.75;5199098;28;20402;-74
2021/10/19 06:06:31;;;;;;;21.55;12.93;;;;;;;14.65;100.00;101710.50;5200953;28;20039;-73
2021/10/19 06:09:01;;;;;;;21.42;13.73;;;;;;;14.65;100.00;101705.94;5179824;28;20368;-74
2021/10/19 06:11:32;;;;;;;19.35;12.68;;;;;;;14.67;100.00;101709.34;5181728;28;20494;-74
2021/10/19 06:14:05;;;;;;;22.17;12.90;;;;;;;14.69;100.00;101720.81;5191949;28;20463;-74
2021/10/19 06:16:36;;;;;;;21.23;12.63;;;;;;;14.71;100.00;101713.38;5193131;28;20029;-74
2021/10/19 06:19:06;;;;;;;18.77;12.23;;;;;;;14.71;100.00;101705.28;5179698;28;20033;-74
2021/10/19 06:21:37;;;;;;;17.52;12.55;;;;;;;14.69;100.00;101707.28;5179741;28;20105;-74
2021/10/19 06:24:08;;;;;;;20.15;12.98;;;;;;;14.70;100.00;101708.97;5190830;28;20032;-74
2021/10/19 06:26:39;;;;;;;18.90;11.55;;;;;;;14.70;100.00;101711.69;5181793;28;20450;-74
2021/10/19 06:29:11;;;;;;;18.27;11.80;;;;;;;14.72;100.00;101709.66;5191778;28;20021;-73
2021/10/19 06:31:42;;;;;;;21.15;12.30;;;;;;;14.72;100.00;101703.44;5193641;28;20451;-74
2021/10/19 06:34:13;;;;;;;18.40;12.43;;;;;;;14.71;100.00;101705.28;5179984;28;20033;-74
2021/10/19 06:36:43;;;;;;;17.13;11.20;;;;;;;14.73;100.00;101705.09;5191692;28;20033;-74
2021/10/19 06:39:14;;;;;;;18.58;11.68;;;;;;;14.73;100.00;101703.25;5180774;28;20062;-74
2021/10/19 06:41:45;;;;;;;20.27;12.15;;;;;;;14.73;100.00;101703.25;5198599;28;20434;-74
2021/10/19 06:44:16;;;;;;;19.45;10.77;;;;;;;14.77;100.00;101693.78;5186374;28;20033;-74
2021/10/19 06:46:48;;;;;;;18.40;10.73;;;;;;;14.80;100.00;101700.69;5199930;28;20040;-74
2021/10/19 06:49:19;;;;;;;17.38;10.50;;;;;;;14.81;100.00;101704.22;5193404;28;20076;-73
2021/10/19 06:51:50;;;;;;;16.98;10.65;;;;;;;14.83;100.00;101704.91;5192371;28;20099;-73
2021/10/19 06:54:20;;;;;;;18.67;11.23;;;;;;;14.82;100.00;101704.06;5192406;28;20468;-74
2021/10/19 06:56:51;;;;;;;19.40;10.32;;;;;;;14.81;100.00;101706.91;5180509;28;20030;-74
2021/10/19 06:59:21;;;;;;;16.88;9.60;;;;;;;14.82;100.00;101709.47;5172905;28;20184;-74
2021/10/19 07:01:52;;;;;;;17.33;10.38;;;;;;;14.83;100.00;101710.31;5178642;28;20033;-74
2021/10/19 07:04:22;;;;;;;14.52;9.95;;;;;;;14.83;100.00;101704.91;5179200;28;20491;-74
2021/10/19 07:06:53;;;;;;;16.67;9.63;;;;;;;14.85;100.00;101700.16;5178570;28;20446;-73
2021/10/19 07:09:23;;;;;;;17.27;9.60;;;;;;;14.85;100.00;101700.16;5189151;28;20112;-74
2021/10/19 07:11:54;;;;;;;12.95;8.57;;;;;;;14.87;100.00;101695.44;5185425;28;20032;-74
2021/10/19 07:14:25;;;;;;;14.98;8.73;;;;;;;14.88;100.00;101713.34;5198772;28;20033;-74
2021/10/19 07:16:55;;;;;;;13.73;7.30;;;;;;;14.87;100.00;101720.59;5180006;28;20415;-74
2021/10/19 07:19:26;;;;;;;13.80;8.48;;;;;;;14.89;100.00;101717.72;5178418;28;20156;-74
2021/10/19 07:21:57;;;;;;;15.35;8.38;;;;;;;14.90;100.00;101714.00;5185989;28;20440;-74
2021/10/19 07:24:27;;;;;;;11.05;7.35;;;;;;;14.90;100.00;101716.69;5184363;28;20209;-74
2021/10/19 07:26:58;;;;;;;12.30;7.05;;;;;;;14.92;100.00;101714.69;5186870;28;20056;-74
2021/10/19 07:29:28;;;;;;;11.13;6.93;;;;;;;14.93;100.00;101714.50;5198795;28;20018;-73
2021/10/19 07:31:59;;;;;;;13.38;7.40;;;;;;;14.98;100.00;101722.09;5189852;28;20025;-74
2021/10/19 07:34:29;;;;;;;12.05;6.72;;;;;;;14.98;100.00;101714.81;5191873;28;20026;-74
2021/10/19 07:37:00;;;;;;;10.60;6.63;;;;;;;14.96;100.00;101727.66;5189346;28;20481;-74
2021/10/19 07:39:30;;;;;;;11.50;6.90;;;;;;;14.98;100.00;101731.03;5179975;28;20454;-73
2021/10/19 07:42:01;;;;;;;13.02;7.03;;;;;;;15.01;100.00;101733.41;5190604;28;20061;-73
2021/10/19 07:44:31;;;;;;;11.40;7.20;;;;;;;15.03;100.00;101727.81;5179680;28;20056;-74
2021/10/19 07:47:02;;;;;;;11.35;7.28;;;;;;;15.03;100.00;101731.34;5191386;28;20026;-74
2021/10/19 07:49:33;;;;;;;11.68;7.07;;;;;;;15.05;100.00;101724.94;5193647;28;20014;-74
2021/10/19 07:52:03;;;;;;;14.07;8.10;;;;;;;15.08;100.00;101727.28;5191357;28;20033;-74
2021/10/19 07:54:35;;;;;;;16.00;8.68;;;;;;;15.10;100.00;101734.19;5187128;28;20059;-74
2021/10/19 07:57:05;;;;;;;15.50;8.60;;;;;;;15.12;100.00;101724.06;5185319;28;20044;-74
2021/10/19 07:59:36;;;;;;;14.48;9.40;;;;;;;15.16;100.00;101728.09;5188281;28;20030;-74
2021/10/19 08:02:07;;;;;;;18.15;9.93;;;;;;;15.16;100.00;101728.09;5180854;28;20108;-74
2021/10/19 08:04:37;;;;;;;18.75;10.77;;;;;;;15.19;100.00;101737.72;5187882;28;20030;-74
2021/10/19 08:07:08;;;;;;;23.80;11.88;;;;;;;15.20;100.00;101737.53;5191037;28;20017;-75
2021/10/19 08:09:38;;;;;;;26.27;13.38;;;;;;;15.25;100.00;101743.25;5178207;28;20367;-75
2021/10/19 08:12:09;;;;;;;24.13;13.43;;;;;;;15.26;100.00;101744.97;5160313;28;20177;-75
2021/10/19 08:14:40;;;;;;;28.50;14.70;;;;;;;15.29;100.00;101758.09;5191060;28;20025;-74
2021/10/19 08:17:11;;;;;;;28.70;14.75;;;;;;;15.29;100.00;101755.41;5178316;28;20032;-74
2021/10/19 08:19:41;;;;;;;30.52;16.10;;;;;;;15.33;100.00;101744.25;5194549;28;20025;-74
2021/10/19 08:22:13;;;;;;;36.70;16.77;;;;;;;15.36;100.00;101749.28;5194265;28;20035;-74
2021/10/19 08:24:43;;;;;;;36.92;16.95;;;;;;;15.38;100.00;101747.28;5181790;28;20072;-74
2021/10/19 08:27:13;;;;;;;33.63;16.92;;;;;;;15.40;100.00;101740.66;5173443;28;20116;-74
2021/10/19 08:29:44;;;;;;;40.97;18.23;;;;;;;15.41;100.00;101745.06;5198549;28;20037;-74
2021/10/19 08:32:15;;;;;;;40.35;19.15;;;;;;;15.42;100.00;101746.75;5192153;28;20036;-74
2021/10/19 08:34:46;;;;;;;43.85;19.38;;;;;;;15.45;100.00;101757.19;5188856;28;20533;-74
2021/10/19 08:37:17;;;;;;;40.35;20.00;;;;;;;15.46;100.00;101752.63;5202331;28;20052;-74
2021/10/19 08:39:47;;;;;;;52.67;22.45;;;;;;;15.48;100.00;101762.25;5201248;28;20032;-74
2021/10/19 08:42:18;;;;;;;43.47;21.67;;;;;;;15.51;100.00;101761.03;5199076;28;20017;-74
2021/10/19 08:44:48;;;;;;;51.88;22.63;;;;;;;15.53;100.00;101759.88;5181809;28;20029;-75
2021/10/19 08:47:20;;;;;;;46.10;21.08;;;;;;;15.55;100.00;101757.81;5181224;28;20165;-75
2021/10/19 08:49:50;;;;;;;49.83;22.55;;;;;;;15.61;100.00;101755.41;5183774;28;20057;-75
2021/10/19 08:52:21;;;;;;;53.72;22.92;;;;;;;15.59;100.00;101752.91;5193942;28;20116;-75
2021/10/19 08:54:51;;;;;;;55.88;23.85;;;;;;;15.61;100.00;101761.66;5191863;28;20030;-75
2021/10/19 08:57:21;;;;;;;46.15;22.80;;;;;;;15.64;100.00;101761.34;5196768;28;20054;-75
2021/10/19 08:59:54;;;;;;;43.08;23.15;;;;;;;15.63;100.00;101753.41;5181028;28;20030;-75
2021/10/19 09:02:39;;;;;;;48.08;24.50;;;;;;;15.68;100.00;101754.59;5186545;28;20029;-75
2021/10/19 09:05:23;;;;;;;46.53;21.58;;;;;;;15.72;100.00;101753.22;5201889;28;20076;-75
2021/10/19 09:08:04;;;;;;;45.78;22.75;;;;;;;15.72;100.00;101757.78;5190501;28;20085;-74
2021/10/19 09:10:39;;;;;;;48.38;21.88;;;;;;;15.74;100.00;101751.16;5201302;28;20026;-74
2021/10/19 09:13:14;;;;;;;45.85;21.98;;;;;;;15.75;100.00;101752.84;5187760;28;20029;-74
2021/10/19 09:15:47;;;;;;;46.70;20.75;;;;;;;15.75;100.00;101760.13;5184125;28;20463;-74
2021/10/19 09:18:20;;;;;;;47.35;20.15;;;;;;;15.75;100.00;101762.81;5201145;28;20024;-74
2021/10/19 09:20:54;;;;;;;50.20;22.00;;;;;;;15.80;100.00;101755.84;5201137;28;20029;-74
2021/10/19 09:23:28;;;;;;;44.35;21.08;;;;;;;15.87;100.00;101755.16;5187539;28;20029;-74
2021/10/19 09:26:01;;;;;;;47.45;21.70;;;;;;;15.90;100.00;101768.31;5201309;28;20029;-74
2021/10/19 09:28:37;;;;;;;48.25;22.20;;;;;;;15.93;100.00;101763.41;5193958;28;20025;-74
2021/10/19 09:31:08;;;;;;;52.47;22.38;;;;;;;15.97;100.00;101766.59;5180890;28;20029;-74
2021/10/19 09:33:38;;;;;;;50.15;22.67;;;;;;;16.00;100.00;101761.66;5200752;28;20415;-74
2021/10/19 09:36:09;;;;;;;47.40;21.67;;;;;;;16.03;100.00;101764.00;5187766;28;20387;-74
2021/10/19 09:38:48;;;;;;;43.58;21.38;;;;;;;16.10;100.00;101755.16;5200682;28;20033;-74
2021/10/19 09:41:18;;;;;;;42.83;20.60;;;;;;;16.10;100.00;101764.13;5198603;28;20467;-74
2021/10/19 09:43:49;;;;;;;52.10;20.10;;;;;;;16.15;100.00;101758.16;5187557;28;20084;-74
2021/10/19 09:46:23;;;;;;;42.95;22.13;;;;;;;16.13;100.00;101754.81;5180975;28;20029;-74
2021/10/19 09:48:56;;;;;;;42.78;22.00;;;;;;;16.16;100.00;101763.38;5182082;28;20482;-74
2021/10/19 09:51:26;;;;;;;36.95;20.73;;;;;;;16.21;100.00;101777.22;5190617;28;20022;-73
2021/10/19 09:53:57;;;;;;;44.97;21.05;;;;;;;16.22;100.00;101768.09;5169947;28;20047;-74
2021/10/19 09:56:28;;;;;;;44.47;19.40;;;;;;;16.24;100.00;101767.91;5200784;28;20021;-74
2021/10/19 09:58:59;;;;;;;45.25;21.70;;;;;;;16.30;100.00;101762.59;5195038;28;20116;-74
2021/10/19 10:01:31;;;;;;;44.25;19.42;;;;;;;16.37;100.00;101764.59;5179566;28;20021;-74
2021/10/19 10:04:03;;;;;;;38.10;20.17;;;;;;;16.43;100.00;101769.28;5193156;28;20053;-74
2021/10/19 10:06:34;;;;;;;39.53;20.23;;;;;;;16.42;100.00;101765.75;5180230;28;20494;-74
2021/10/19 10:09:05;;;;;;;36.03;19.02;;;;;;;16.46;100.00;101772.44;5187183;28;20079;-74
2021/10/19 10:11:40;;;;;;;39.40;19.95;;;;;;;16.53;100.00;101776.13;5200231;28;20041;-74
2021/10/19 10:14:12;;;;;;;36.30;19.25;;;;;;;16.60;100.00;101772.69;5190592;28;20027;-74
2021/10/19 10:16:45;;;;;;;35.03;17.33;;;;;;;16.65;100.00;101775.69;5183434;28;20037;-74
2021/10/19 10:19:19;;;;;;;36.42;17.17;;;;;;;16.72;100.00;101773.97;5200178;28;20160;-75
2021/10/19 10:21:52;;;;;;;30.30;17.10;;;;;;;16.81;100.00;101760.13;5163479;28;20057;-74
2021/10/19 10:24:29;;;;;;;32.72;16.65;;;;;;;16.91;100.00;101764.44;5192622;28;20040;-74
2021/10/19 10:27:06;;;;;;;28.58;14.82;;;;;;;16.99;100.00;101767.06;5167606;28;20029;-74
2021/10/19 10:29:39;;;;;;;32.22;16.77;;;;;;;17.09;100.00;101763.06;5182236;28;20080;-74
2021/10/19 10:32:31;;;;;;;27.95;15.07;;;;;;;17.16;100.00;101770.44;5200234;28;20060;-74
2021/10/19 10:35:13;;;;;;;26.75;13.43;;;;;;;17.21;100.00;101766.13;5199619;28;20033;-74
2021/10/19 10:37:51;;;;;;;24.55;12.45;;;;;;;17.22;100.00;101769.69;5196648;28;20089;-74
2021/10/19 10:40:32;;;;;;;25.98;12.57;;;;;;;17.34;100.00;101760.06;5190478;28;20022;-74
2021/10/19 10:43:24;;;;;;;25.58;11.82;;;;;;;17.36;100.00;101760.69;5190947;28;20328;-75
2021/10/19 10:46:15;;;;;;;19.10;9.35;;;;;;;17.42;100.00;101756.38;5196999;28;20025;-74
2021/10/19 10:48:47;;;;;;;20.13;9.30;;;;;;;17.40;100.00;101763.88;5181613;28;20287;-74
2021/10/19 10:51:28;;;;;;;14.52;7.80;;;;;;;17.42;100.00;101759.97;5188903;28;20151;-74
2021/10/19 10:53:59;;;;;;;15.75;7.70;;;;;;;17.46;100.00;101763.13;5199388;28;20429;-74
2021/10/19 10:56:47;;;;;;;14.75;7.43;;;;;;;17.45;100.00;101759.56;5199522;28;20416;-74
2021/10/19 10:59:25;;;;;;;14.73;7.65;;;;;;;17.50;100.00;101756.28;5191433;28;20029;-75
2021/10/19 11:02:07;;;;;;;10.70;6.80;;;;;;;17.57;100.00;101755.34;5178208;28;20179;-75
2021/10/19 11:04:55;;;;;;;12.20;6.30;;;;;;;17.55;100.00;101756.56;5178737;28;20282;-74
2021/10/19 11:07:30;;;;;;;10.70;5.65;;;;;;;17.54;100.00;101758.44;5181221;28;20452;-74
2021/10/19 11:10:13;;;;;;;10.60;6.68;;;;;;;17.55;100.00;101764.69;5178111;28;20018;-74
2021/10/19 11:12:45;;;;;;;15.77;6.30;;;;;;;17.59;100.00;101768.72;5178757;28;20027;-74
2021/10/19 11:15:17;;;;;;;8.88;5.88;;;;;;;17.58;100.00;101765.16;5196674;28;20023;-74
2021/10/19 11:17:52;;;;;;;13.65;6.88;;;;;;;17.60;100.00;101757.66;5199144;28;20032;-74
2021/10/19 11:20:25;;;;;;;14.02;6.30;;;;;;;17.63;100.00;101761.88;5198704;28;20030;-74
2021/10/19 11:22:55;;;;;;;10.93;6.35;;;;;;;17.62;100.00;101771.06;5185663;28;20109;-74
2021/10/19 11:25:26;;;;;;;9.80;6.70;;;;;;;17.65;100.00;101767.94;5199038;28;20029;-74